Time;durP1;ratioP1;P1;durP2;ratioP2;P2;SDS_P1;SDS_P2;PMS_P1;PMS_P2;Temp;Humidity;BMP_temperature;BMP_pressure;BME280_temperature;BME280_humidity;BME280_pressure;Samples;Min_cycle;Max_cycle;Signal;HPM_P1;HPM_P2
2023/12/26 00:01:27;;;;;;;5.28;2.00;;;10.10;99.90;;;;;;5028663;28;20182;-67
2023/12/26 00:03:53;;;;;;;4.55;1.70;;;10.20;99.90;;;;;;5056094;28;20032;-67
2023/12/26 00:06:21;;;;;;;4.07;1.60;;;10.10;99.90;;;;;;5040672;28;20761;-68
2023/12/26 00:08:47;;;;;;;4.15;1.25;;;10.30;99.90;;;;;;5042102;28;20530;-67
2023/12/26 00:11:13;;;;;;;5.32;1.10;;;10.10;99.90;;;;;;5020133;28;20584;-68
2023/12/26 00:13:39;;;;;;;4.88;0.73;;;10.10;99.90;;;;;;5058759;28;20047;-68
2023/12/26 00:16:05;;;;;;;6.43;0.90;;;10.20;99.90;;;;;;5038577;28;20043;-68
2023/12/26 00:18:31;;;;;;;5.00;0.90;;;10.10;99.90;;;;;;5053276;28;20074;-68
2023/12/26 00:20:57;;;;;;;3.55;1.00;;;10.20;99.90;;;;;;5040597;28;20079;-68
2023/12/26 00:23:22;;;;;;;2.78;0.90;;;10.40;99.90;;;;;;5060376;28;20078;-68
2023/12/26 00:25:48;;;;;;;3.85;0.95;;;10.40;99.90;;;;;;5018038;28;20040;-68
2023/12/26 00:28:16;;;;;;;3.45;1.02;;;10.50;99.90;;;;;;5043962;28;20044;-68
2023/12/26 00:30:42;;;;;;;3.03;0.80;;;10.20;99.90;;;;;;5018286;28;20044;-68
2023/12/26 00:33:08;;;;;;;2.53;0.77;;;10.30;99.90;;;;;;5058873;28;20048;-68
2023/12/26 00:35:33;;;;;;;5.28;1.00;;;10.40;99.90;;;;;;5043170;28;20043;-68
2023/12/26 00:38:01;;;;;;;2.90;1.13;;;10.20;99.90;;;;;;5052790;28;20037;-68
2023/12/26 00:40:27;;;;;;;3.47;1.17;;;10.30;99.90;;;;;;5040123;28;20573;-68
2023/12/26 00:42:53;;;;;;;3.92;1.20;;;10.30;99.90;;;;;;5040587;28;20115;-68
2023/12/26 00:45:22;;;;;;;3.13;1.23;;;10.30;99.90;;;;;;5040014;28;20039;-68
2023/12/26 00:47:48;;;;;;;2.72;0.80;;;10.40;99.90;;;;;;5041918;28;20295;-68
2023/12/26 00:50:16;;;;;;;2.35;1.05;;;10.40;99.90;;;;;;5057245;28;20124;-69
2023/12/26 00:52:42;;;;;;;3.60;0.80;;;10.60;99.90;;;;;;5056071;28;20046;-68
2023/12/26 00:55:08;;;;;;;5.13;0.73;;;10.30;99.90;;;;;;5034251;28;20147;-68
2023/12/26 00:57:35;;;;;;;2.50;0.60;;;10.30;99.90;;;;;;5052040;28;20028;-68
2023/12/26 01:00:01;;;;;;;4.00;0.98;;;10.40;99.90;;;;;;5033068;28;20052;-68
2023/12/26 01:02:27;;;;;;;2.70;0.60;;;10.60;99.90;;;;;;5055639;28;20405;-68
2023/12/26 01:04:53;;;;;;;2.35;0.50;;;10.40;99.90;;;;;;5041099;28;20135;-68
2023/12/26 01:07:19;;;;;;;4.07;0.50;;;10.70;99.90;;;;;;5019108;28;20055;-68
2023/12/26 01:09:44;;;;;;;1.45;0.32;;;10.40;99.90;;;;;;5038167;28;20482;-67
2023/12/26 01:12:10;;;;;;;3.03;0.60;;;10.40;99.90;;;;;;5017446;28;20406;-68
2023/12/26 01:14:38;;;;;;;6.05;0.50;;;10.60;99.90;;;;;;5046905;28;20344;-68
2023/12/26 01:17:04;;;;;;;3.15;0.50;;;10.40;99.90;;;;;;5058198;28;20074;-69
2023/12/26 01:19:30;;;;;;;4.18;0.50;;;10.70;99.90;;;;;;5063809;28;20082;-68
2023/12/26 01:21:56;;;;;;;3.78;1.17;;;10.60;99.90;;;;;;5034284;28;20154;-68
2023/12/26 01:24:21;;;;;;;1.58;0.30;;;10.50;99.90;;;;;;5062272;28;20506;-67
2023/12/26 01:26:47;;;;;;;4.25;0.40;;;10.50;99.90;;;;;;5059365;28;20047;-68
2023/12/26 01:29:13;;;;;;;4.80;0.40;;;10.40;99.90;;;;;;5063156;28;20537;-68
2023/12/26 01:31:39;;;;;;;5.32;0.45;;;10.70;99.90;;;;;;5042222;28;20040;-68
2023/12/26 01:34:05;;;;;;;3.65;0.30;;;10.40;99.90;;;;;;5021864;28;20288;-68
2023/12/26 01:36:32;;;;;;;3.95;0.30;;;10.60;99.90;;;;;;5041628;28;20448;-68
2023/12/26 01:38:58;;;;;;;6.22;0.60;;;10.60;99.90;;;;;;5042608;28;20480;-68
2023/12/26 01:41:24;;;;;;;6.75;0.30;;;10.60;99.90;;;;;;5050724;28;20036;-68
2023/12/26 01:43:50;;;;;;;5.63;0.30;;;10.40;99.90;;;;;;5048652;28;20036;-67
2023/12/26 01:46:16;;;;;;;7.97;0.50;;;10.40;99.90;;;;;;5054453;28;20505;-67
2023/12/26 01:48:49;;;;;;;4.82;0.40;;;10.40;99.90;;;;;;5063307;28;20036;-67
2023/12/26 01:51:18;;;;;;;7.28;0.35;;;10.50;99.90;;;;;;5043318;28;20049;-68
2023/12/26 01:53:43;;;;;;;7.88;0.50;;;10.50;99.90;;;;;;5046050;28;20814;-67
2023/12/26 01:56:15;;;;;;;6.38;0.40;;;10.40;99.90;;;;;;5063785;28;20040;-67
2023/12/26 01:58:42;;;;;;;12.38;0.63;;;10.50;99.90;;;;;;5040211;28;20961;-68
2023/12/26 02:01:09;;;;;;;7.70;0.45;;;10.30;99.90;;;;;;5061280;28;20426;-67
2023/12/26 02:03:35;;;;;;;9.10;0.63;;;10.30;99.90;;;;;;5052087;28;20032;-67
2023/12/26 02:06:01;;;;;;;10.10;0.70;;;10.30;99.90;;;;;;5039843;28;20071;-67
2023/12/26 02:08:28;;;;;;;11.23;0.77;;;10.40;99.90;;;;;;5059133;28;20045;-67
2023/12/26 02:10:54;;;;;;;10.73;0.82;;;10.30;99.90;;;;;;5035711;28;20150;-67
2023/12/26 02:13:21;;;;;;;11.05;0.63;;;10.20;99.90;;;;;;5021316;28;20282;-67
2023/12/26 02:15:50;;;;;;;9.88;0.90;;;10.30;99.90;;;;;;5057362;28;20398;-67
2023/12/26 02:18:16;;;;;;;7.40;0.47;;;10.20;99.90;;;;;;5030343;28;20492;-67
2023/12/26 02:20:41;;;;;;;14.82;1.08;;;10.40;99.90;;;;;;5046667;28;20048;-67
2023/12/26 02:23:07;;;;;;;12.95;1.13;;;10.30;99.90;;;;;;5040509;28;20519;-67
2023/12/26 02:25:33;;;;;;;13.32;0.85;;;10.40;99.90;;;;;;5042403;28;20036;-67
2023/12/26 02:28:03;;;;;;;12.18;0.93;;;10.50;99.90;;;;;;5060200;28;20032;-67
2023/12/26 02:30:29;;;;;;;12.45;1.00;;;10.50;99.90;;;;;;5058709;28;20071;-66
2023/12/26 02:32:57;;;;;;;16.90;1.10;;;10.30;99.90;;;;;;5024808;28;20126;-67
2023/12/26 02:35:23;;;;;;;16.58;1.20;;;10.50;99.90;;;;;;5048433;28;20056;-68
2023/12/26 02:37:49;;;;;;;19.70;1.27;;;10.60;99.90;;;;;;5060243;28;20228;-67
2023/12/26 02:40:16;;;;;;;16.20;1.35;;;10.40;99.90;;;;;;5041320;28;20353;-68
2023/12/26 02:42:41;;;;;;;13.80;1.00;;;10.50;99.90;;;;;;5065376;28;20040;-67
2023/12/26 02:45:08;;;;;;;12.77;1.92;;;10.40;99.90;;;;;;5043183;28;20063;-68
2023/12/26 02:47:34;;;;;;;11.25;1.15;;;10.40;99.90;;;;;;5044387;28;20132;-67
2023/12/26 02:49:59;;;;;;;16.23;1.55;;;10.60;99.90;;;;;;5027517;28;20040;-67
2023/12/26 02:52:25;;;;;;;12.50;1.00;;;10.50;99.90;;;;;;5039571;28;20040;-67
2023/12/26 02:54:51;;;;;;;13.27;1.08;;;10.40;99.90;;;;;;5061070;28;20042;-67
2023/12/26 02:57:17;;;;;;;17.25;2.03;;;10.40;99.90;;;;;;5054582;28;20714;-67
2023/12/26 02:59:43;;;;;;;15.38;1.48;;;10.20;99.90;;;;;;5072999;28;20044;-67
2023/12/26 03:02:09;;;;;;;19.10;1.92;;;10.20;99.90;;;;;;5039082;28;20111;-67
2023/12/26 03:04:35;;;;;;;15.77;1.67;;;10.20;99.90;;;;;;5042073;28;20116;-67
2023/12/26 03:07:01;;;;;;;13.35;1.38;;;10.20;99.90;;;;;;5019366;28;20198;-67
2023/12/26 03:09:27;;;;;;;11.13;1.38;;;10.20;99.90;;;;;;5041220;28;20544;-67
2023/12/26 03:11:52;;;;;;;15.40;1.25;;;10.10;99.90;;;;;;5040709;28;20040;-67
2023/12/26 03:14:18;;;;;;;10.77;1.38;;;10.10;99.90;;;;;;5063384;28;20376;-67
2023/12/26 03:16:44;;;;;;;19.05;1.83;;;10.00;99.90;;;;;;5059808;28;20040;-67
2023/12/26 03:19:10;;;;;;;15.75;1.45;;;10.00;99.90;;;;;;5056501;28;20686;-67
2023/12/26 03:21:35;;;;;;;17.58;1.98;;;10.00;99.90;;;;;;5039731;28;20484;-67
2023/12/26 03:24:01;;;;;;;15.98;1.63;;;9.90;99.90;;;;;;5040424;28;20616;-68
2023/12/26 03:26:27;;;;;;;12.40;1.27;;;9.70;99.90;;;;;;5055327;28;20043;-67
2023/12/26 03:28:53;;;;;;;15.82;1.27;;;9.60;99.90;;;;;;5044084;28;20040;-67
2023/12/26 03:31:19;;;;;;;19.50;1.60;;;9.70;99.90;;;;;;5041010;28;20064;-67
2023/12/26 03:33:44;;;;;;;16.80;1.90;;;9.70;99.90;;;;;;5057134;28;20521;-67
2023/12/26 03:36:10;;;;;;;15.25;1.60;;;9.60;99.90;;;;;;5058700;28;20221;-67
2023/12/26 03:38:36;;;;;;;14.63;2.05;;;9.50;99.90;;;;;;5057313;28;20550;-67
2023/12/26 03:41:02;;;;;;;13.65;2.00;;;9.60;99.90;;;;;;5035882;28;20071;-67
2023/12/26 03:43:28;;;;;;;11.90;1.15;;;9.60;99.90;;;;;;5012937;28;20044;-67
2023/12/26 03:45:53;;;;;;;15.00;1.48;;;9.60;99.90;;;;;;5059503;28;20047;-67
2023/12/26 03:48:20;;;;;;;13.32;1.35;;;9.50;99.90;;;;;;5061914;28;20047;-67
2023/12/26 03:50:46;;;;;;;13.77;1.55;;;9.30;99.90;;;;;;5042353;28;20494;-67
2023/12/26 03:53:12;;;;;;;16.08;1.40;;;9.40;99.90;;;;;;5060936;28;20181;-67
2023/12/26 03:55:38;;;;;;;17.58;1.65;;;9.50;99.90;;;;;;5039376;28;20395;-67
2023/12/26 03:58:03;;;;;;;21.08;1.70;;;9.50;99.90;;;;;;5062236;28;20108;-67
2023/12/26 04:00:29;;;;;;;14.43;1.40;;;9.40;99.90;;;;;;5039340;28;20217;-67
2023/12/26 04:02:55;;;;;;;11.75;1.27;;;9.60;99.90;;;;;;5024397;28;20036;-67
2023/12/26 04:05:21;;;;;;;13.65;1.50;;;9.60;99.90;;;;;;5039720;28;20049;-67
2023/12/26 04:07:48;;;;;;;10.43;1.10;;;9.60;99.90;;;;;;5056075;28;20587;-68
2023/12/26 04:10:14;;;;;;;14.25;1.42;;;9.50;99.90;;;;;;5054773;28;20692;-67
2023/12/26 04:12:40;;;;;;;16.25;1.27;;;9.40;99.90;;;;;;5041958;28;20036;-68
2023/12/26 04:15:07;;;;;;;19.35;1.90;;;9.30;99.90;;;;;;5059257;28;20047;-67
2023/12/26 04:17:33;;;;;;;13.70;1.35;;;9.40;99.90;;;;;;5056406;28;20111;-67
2023/12/26 04:19:58;;;;;;;13.32;1.58;;;9.20;99.90;;;;;;5055365;28;20063;-67
2023/12/26 04:22:24;;;;;;;14.70;1.42;;;9.20;99.90;;;;;;5039851;28;20604;-68
2023/12/26 04:24:50;;;;;;;13.77;1.35;;;9.10;99.90;;;;;;5043425;28;20638;-67
2023/12/26 04:27:16;;;;;;;11.73;1.70;;;9.20;99.90;;;;;;5054524;28;20490;-68
2023/12/26 04:29:42;;;;;;;17.23;1.88;;;9.10;99.90;;;;;;5058717;28;20074;-68
2023/12/26 04:32:10;;;;;;;14.70;1.50;;;9.10;99.90;;;;;;5053842;28;20076;-67
2023/12/26 04:34:40;;;;;;;18.00;2.10;;;9.10;99.90;;;;;;5058861;28;20081;-67
2023/12/26 04:37:06;;;;;;;17.92;1.90;;;9.10;99.90;;;;;;5061264;28;20426;-67
2023/12/26 04:39:32;;;;;;;21.48;2.15;;;9.00;99.90;;;;;;5073391;28;20055;-68
2023/12/26 04:41:58;;;;;;;24.52;2.50;;;9.00;99.90;;;;;;5039681;28;20052;-67
2023/12/26 04:44:24;;;;;;;19.73;1.80;;;9.00;99.90;;;;;;5057544;28;20199;-67
2023/12/26 04:46:51;;;;;;;18.25;2.15;;;8.90;99.90;;;;;;5059429;28;20592;-67
2023/12/26 04:49:17;;;;;;;23.80;2.60;;;8.90;99.90;;;;;;5065925;28;20101;-67
2023/12/26 04:51:42;;;;;;;18.13;2.13;;;8.90;99.90;;;;;;5061249;28;20044;-67
2023/12/26 04:54:08;;;;;;;23.20;2.22;;;8.90;99.90;;;;;;5004364;28;20044;-67
2023/12/26 04:56:36;;;;;;;21.50;2.40;;;8.90;99.90;;;;;;5046528;28;20099;-67
2023/12/26 04:59:03;;;;;;;23.58;3.35;;;8.90;99.90;;;;;;5042738;28;20188;-67
2023/12/26 05:01:29;;;;;;;16.30;2.15;;;8.90;99.90;;;;;;5025148;28;20028;-68
2023/12/26 05:03:55;;;;;;;33.67;2.88;;;8.90;99.90;;;;;;5047321;28;20047;-68
2023/12/26 05:06:21;;;;;;;23.77;3.25;;;9.00;99.90;;;;;;5022951;28;20059;-67
2023/12/26 05:08:47;;;;;;;22.45;2.42;;;8.90;99.90;;;;;;5044011;28;20044;-67
2023/12/26 05:11:23;;;;;;;20.10;2.38;;;8.90;99.90;;;;;;5046944;28;20032;-67
2023/12/26 05:13:49;;;;;;;26.17;2.55;;;9.00;99.90;;;;;;5042658;28;20424;-68
2023/12/26 05:16:16;;;;;;;23.52;2.33;;;9.00;99.90;;;;;;5063639;28;20078;-67
2023/12/26 05:18:42;;;;;;;26.83;3.00;;;9.10;99.90;;;;;;5037130;28;20037;-68
2023/12/26 05:21:19;;;;;;;22.48;3.17;;;9.00;99.90;;;;;;5056957;28;20044;-67
2023/12/26 05:23:46;;;;;;;22.67;2.00;;;8.90;99.90;;;;;;5025736;28;20051;-67
2023/12/26 05:26:12;;;;;;;19.58;2.35;;;9.10;99.90;;;;;;5063699;28;20398;-67
2023/12/26 05:28:38;;;;;;;19.90;2.55;;;9.00;99.90;;;;;;5024690;28;20036;-67
2023/12/26 05:31:04;;;;;;;22.77;2.63;;;9.00;99.90;;;;;;5041956;28;20044;-67
2023/12/26 05:33:31;;;;;;;24.63;2.17;;;9.10;99.90;;;;;;5034316;28;20040;-68
2023/12/26 05:35:57;;;;;;;15.68;2.60;;;9.10;99.90;;;;;;5061282;28;20067;-67
2023/12/26 05:38:23;;;;;;;19.98;2.13;;;9.00;99.90;;;;;;5042121;28;20045;-68
2023/12/26 05:40:49;;;;;;;15.18;2.05;;;9.00;99.90;;;;;;5048743;28;20428;-67
2023/12/26 05:43:15;;;;;;;14.45;1.35;;;9.10;99.90;;;;;;5060141;28;20052;-68
2023/12/26 05:45:41;;;;;;;18.83;2.08;;;9.10;99.90;;;;;;5042781;28;20040;-67
2023/12/26 05:48:08;;;;;;;20.58;2.70;;;9.10;99.90;;;;;;5064842;28;20048;-67
2023/12/26 05:50:33;;;;;;;26.63;2.75;;;9.10;99.90;;;;;;5057464;28;20067;-67
2023/12/26 05:53:01;;;;;;;19.00;1.90;;;9.10;99.90;;;;;;5041418;28;20036;-68
2023/12/26 05:55:27;;;;;;;24.60;2.78;;;9.10;99.90;;;;;;5062239;28;20589;-67
2023/12/26 05:57:53;;;;;;;18.30;1.95;;;9.20;99.90;;;;;;5058273;28;20485;-67
2023/12/26 06:00:19;;;;;;;21.73;2.60;;;9.00;99.90;;;;;;5026587;28;20425;-67
2023/12/26 06:02:45;;;;;;;17.02;1.40;;;9.00;99.90;;;;;;5060755;28;20068;-68
2023/12/26 06:05:11;;;;;;;24.88;2.53;;;9.10;99.90;;;;;;5062807;28;20143;-67
2023/12/26 06:07:36;;;;;;;22.52;2.33;;;9.10;99.90;;;;;;5043241;28;20048;-67
2023/12/26 06:10:04;;;;;;;18.55;2.33;;;9.20;99.90;;;;;;5026433;28;20040;-68
2023/12/26 06:12:30;;;;;;;19.70;1.70;;;9.20;99.90;;;;;;5045235;28;20317;-67
2023/12/26 06:14:56;;;;;;;20.73;2.80;;;9.20;99.90;;;;;;5047284;28;20247;-67
2023/12/26 06:17:22;;;;;;;21.88;2.00;;;9.20;99.90;;;;;;5044131;28;20734;-67
2023/12/26 06:19:48;;;;;;;22.15;2.25;;;9.20;99.90;;;;;;5021181;28;20123;-67
2023/12/26 06:22:14;;;;;;;28.35;2.97;;;9.10;99.90;;;;;;5058031;28;20037;-69
2023/12/26 06:24:40;;;;;;;23.02;2.35;;;9.10;99.90;;;;;;5045685;28;20039;-66
2023/12/26 06:27:06;;;;;;;19.35;1.65;;;9.00;99.90;;;;;;5064028;28;20047;-67
2023/12/26 06:29:31;;;;;;;17.85;2.08;;;9.00;99.90;;;;;;5056593;28;20095;-67
2023/12/26 06:31:58;;;;;;;16.65;1.33;;;9.00;99.90;;;;;;5042128;28;20101;-68
2023/12/26 06:34:25;;;;;;;20.38;2.55;;;9.00;99.90;;;;;;5062243;28;20150;-67
2023/12/26 06:36:51;;;;;;;17.73;2.15;;;9.00;99.90;;;;;;5043027;28;20118;-67
2023/12/26 06:39:17;;;;;;;11.32;1.13;;;8.90;99.90;;;;;;5051149;28;20130;-67
2023/12/26 06:41:43;;;;;;;18.77;2.42;;;9.00;99.90;;;;;;5019193;28;20328;-67
2023/12/26 06:44:10;;;;;;;15.60;1.45;;;8.90;99.90;;;;;;5044261;28;20036;-67
2023/12/26 06:46:40;;;;;;;12.68;1.30;;;9.00;99.90;;;;;;5044528;28;20724;-67
2023/12/26 06:49:06;;;;;;;14.25;1.58;;;9.00;99.90;;;;;;5054906;28;20557;-67
2023/12/26 06:51:32;;;;;;;18.38;1.50;;;9.00;99.90;;;;;;5042531;28;20128;-67
2023/12/26 06:54:01;;;;;;;19.38;1.52;;;9.10;99.90;;;;;;5053693;28;20074;-67
2023/12/26 06:56:26;;;;;;;17.48;1.52;;;9.20;99.90;;;;;;5037155;28;20047;-68
2023/12/26 06:58:52;;;;;;;19.92;1.67;;;9.10;99.90;;;;;;5043406;28;20663;-67
2023/12/26 07:01:18;;;;;;;14.88;1.92;;;9.20;99.90;;;;;;5057342;28;20070;-67
2023/12/26 07:03:44;;;;;;;16.55;1.33;;;9.20;99.90;;;;;;5042606;28;20040;-67
2023/12/26 07:06:10;;;;;;;14.90;1.45;;;9.10;99.90;;;;;;5061575;28;20117;-68
2023/12/26 07:08:36;;;;;;;16.48;1.52;;;9.00;99.90;;;;;;5035550;28;20427;-68
2023/12/26 07:11:05;;;;;;;15.20;1.67;;;9.10;99.90;;;;;;5053708;28;20123;-68
2023/12/26 07:13:30;;;;;;;22.30;2.17;;;9.00;99.90;;;;;;5041079;28;20321;-68
2023/12/26 07:15:57;;;;;;;11.52;1.20;;;9.00;99.90;;;;;;5059929;28;20262;-68
2023/12/26 07:18:23;;;;;;;20.88;2.80;;;8.90;99.90;;;;;;5021456;28;20141;-68
2023/12/26 07:20:49;;;;;;;19.83;1.98;;;9.00;99.90;;;;;;5042351;28;20059;-69
2023/12/26 07:23:14;;;;;;;21.25;2.10;;;8.90;99.90;;;;;;5042112;28;20198;-68
2023/12/26 07:25:43;;;;;;;16.98;1.98;;;9.00;99.90;;;;;;5040038;28;20040;-69
2023/12/26 07:28:10;;;;;;;19.00;2.53;;;9.00;99.90;;;;;;5041154;28;20747;-68
2023/12/26 07:30:39;;;;;;;11.05;1.02;;;9.00;99.90;;;;;;5035695;28;20062;-68
2023/12/26 07:33:05;;;;;;;15.30;1.70;;;9.00;99.90;;;;;;5057470;28;20102;-68
2023/12/26 07:35:32;;;;;;;26.55;2.38;;;9.00;99.90;;;;;;5040095;28;20438;-69
2023/12/26 07:37:58;;;;;;;19.70;1.75;;;9.00;99.90;;;;;;5020042;28;20069;-68
2023/12/26 07:40:24;;;;;;;20.23;2.65;;;9.00;99.90;;;;;;5020358;28;20067;-69
2023/12/26 07:42:49;;;;;;;18.05;2.17;;;9.00;99.90;;;;;;5075875;28;20039;-67
2023/12/26 07:45:15;;;;;;;20.58;1.90;;;9.00;99.90;;;;;;5037154;28;20091;-67
2023/12/26 07:47:41;;;;;;;24.95;2.15;;;8.90;99.90;;;;;;5043646;28;20204;-67
2023/12/26 07:50:07;;;;;;;25.08;2.30;;;8.90;99.90;;;;;;5058910;28;20036;-67
2023/12/26 07:52:33;;;;;;;16.30;1.63;;;8.90;99.90;;;;;;5059052;28;20078;-67
2023/12/26 07:54:58;;;;;;;21.65;2.30;;;9.00;99.90;;;;;;5011826;28;20043;-67
2023/12/26 07:57:24;;;;;;;21.50;2.47;;;9.00;99.90;;;;;;5058843;28;20049;-68
2023/12/26 07:59:50;;;;;;;18.77;2.38;;;9.00;99.90;;;;;;5061489;28;20032;-67
2023/12/26 08:02:16;;;;;;;20.60;2.53;;;9.00;99.90;;;;;;5022637;28;20283;-68
2023/12/26 08:04:42;;;;;;;20.40;2.20;;;9.00;99.90;;;;;;5048046;28;20081;-67
2023/12/26 08:07:08;;;;;;;17.92;2.33;;;9.10;99.90;;;;;;5055100;28;20409;-67
2023/12/26 08:09:34;;;;;;;23.13;2.80;;;9.00;99.90;;;;;;5023926;28;20047;-67
2023/12/26 08:12:00;;;;;;;18.95;2.33;;;9.00;99.90;;;;;;5022949;28;20798;-67
2023/12/26 08:14:26;;;;;;;18.25;2.58;;;9.10;99.90;;;;;;5046530;28;20044;-67
2023/12/26 08:16:53;;;;;;;21.48;2.15;;;9.10;99.90;;;;;;5061191;28;20048;-68
2023/12/26 08:19:18;;;;;;;21.80;2.38;;;9.10;99.90;;;;;;5051536;28;20495;-67
2023/12/26 08:21:44;;;;;;;25.30;2.40;;;9.20;99.90;;;;;;5056572;28;20274;-67
2023/12/26 08:24:10;;;;;;;20.20;2.28;;;9.10;99.90;;;;;;5040883;28;20430;-67
2023/12/26 08:26:36;;;;;;;19.80;1.95;;;9.10;99.90;;;;;;5022418;28;20047;-67
2023/12/26 08:29:02;;;;;;;23.17;2.90;;;9.10;99.90;;;;;;5044679;28;20548;-68
2023/12/26 08:31:28;;;;;;;17.65;2.17;;;9.10;99.90;;;;;;5021091;28;20123;-67
2023/12/26 08:33:54;;;;;;;23.23;2.67;;;9.10;99.90;;;;;;5040102;28;20671;-69
2023/12/26 08:36:20;;;;;;;17.20;1.52;;;9.20;99.90;;;;;;5039793;28;20041;-67
2023/12/26 08:38:45;;;;;;;26.48;2.40;;;9.20;99.90;;;;;;5036434;28;20051;-67
2023/12/26 08:41:12;;;;;;;21.98;2.53;;;9.20;99.90;;;;;;5037865;28;20532;-67
2023/12/26 08:43:38;;;;;;;25.20;2.35;;;9.20;99.90;;;;;;5033538;28;20259;-67
2023/12/26 08:46:04;;;;;;;21.75;2.40;;;9.30;99.90;;;;;;5021384;28;20043;-67
2023/12/26 08:48:30;;;;;;;23.52;3.08;;;9.30;99.90;;;;;;5058504;28;20043;-67
2023/12/26 08:50:56;;;;;;;23.05;2.00;;;9.20;99.90;;;;;;5057149;28;20094;-67
2023/12/26 08:53:22;;;;;;;23.67;2.60;;;9.20;99.90;;;;;;5018260;28;20578;-67
2023/12/26 08:55:48;;;;;;;17.00;1.90;;;9.30;99.90;;;;;;5022718;28;20044;-67
2023/12/26 08:58:16;;;;;;;20.40;2.05;;;9.30;99.90;;;;;;5019217;28;20040;-67
2023/12/26 09:00:44;;;;;;;17.20;2.17;;;9.20;99.90;;;;;;5018192;28;20047;-66
2023/12/26 09:03:11;;;;;;;21.35;2.10;;;9.30;99.90;;;;;;5019564;28;20457;-66
2023/12/26 09:05:37;;;;;;;25.75;2.85;;;9.30;99.90;;;;;;5034029;28;20187;-67
2023/12/26 09:08:03;;;;;;;13.77;2.42;;;9.30;99.90;;;;;;5039446;28;20265;-66
2023/12/26 09:10:29;;;;;;;23.90;2.40;;;9.20;99.90;;;;;;5041406;28;20304;-66
2023/12/26 09:12:55;;;;;;;20.33;2.33;;;9.20;99.90;;;;;;5041959;28;20181;-66
2023/12/26 09:15:20;;;;;;;20.35;2.35;;;9.30;99.90;;;;;;5023024;28;21417;-65
2023/12/26 09:17:46;;;;;;;15.55;1.98;;;9.30;99.90;;;;;;5037024;28;20048;-66
2023/12/26 09:20:12;;;;;;;23.95;2.60;;;9.30;99.90;;;;;;5056595;28;20048;-67
2023/12/26 09:22:38;;;;;;;16.58;2.20;;;9.30;99.90;;;;;;5018480;28;20045;-65
2023/12/26 09:25:07;;;;;;;17.38;1.83;;;9.30;99.90;;;;;;5056840;28;20809;-66
2023/12/26 09:27:34;;;;;;;21.58;2.22;;;9.30;99.90;;;;;;5037745;28;20445;-66
2023/12/26 09:29:59;;;;;;;20.17;2.38;;;9.40;99.90;;;;;;5054513;28;20532;-67
2023/12/26 09:32:25;;;;;;;17.92;2.13;;;9.40;99.90;;;;;;5038668;28;20040;-67
2023/12/26 09:34:51;;;;;;;17.75;2.03;;;9.40;99.90;;;;;;5042499;28;20174;-67
2023/12/26 09:37:18;;;;;;;20.80;2.35;;;9.40;99.90;;;;;;5032262;28;20048;-66
2023/12/26 09:39:44;;;;;;;20.25;2.03;;;9.40;99.90;;;;;;5024762;28;20036;-66
2023/12/26 09:42:11;;;;;;;17.35;2.65;;;9.40;99.90;;;;;;5011802;28;20764;-66
2023/12/26 09:44:38;;;;;;;15.45;1.60;;;9.40;99.90;;;;;;5057936;28;20040;-66
2023/12/26 09:47:06;;;;;;;16.42;1.58;;;9.30;99.90;;;;;;5039920;28;20040;-66
2023/12/26 09:49:32;;;;;;;16.58;2.00;;;9.40;99.90;;;;;;5043367;28;20494;-65
2023/12/26 09:52:02;;;;;;;18.33;1.90;;;9.40;99.90;;;;;;5041021;28;20069;-65
2023/12/26 09:54:30;;;;;;;19.83;1.85;;;9.40;99.90;;;;;;5019666;28;20506;-66
2023/12/26 09:56:56;;;;;;;19.27;2.08;;;9.50;99.90;;;;;;5038217;28;20036;-65
2023/12/26 09:59:25;;;;;;;22.98;2.50;;;9.40;99.90;;;;;;5023213;28;20036;-65
2023/12/26 10:01:51;;;;;;;19.13;1.75;;;9.50;99.90;;;;;;5056563;28;20308;-65
2023/12/26 10:04:18;;;;;;;21.15;2.20;;;9.50;99.90;;;;;;5036518;28;20375;-65
2023/12/26 10:06:43;;;;;;;17.25;2.03;;;9.50;99.90;;;;;;5057832;28;20052;-66
2023/12/26 10:09:09;;;;;;;14.20;1.98;;;9.50;99.90;;;;;;5062928;28;20117;-66
2023/12/26 10:11:35;;;;;;;18.17;2.20;;;9.50;99.90;;;;;;5019700;28;20286;-66
2023/12/26 10:14:01;;;;;;;20.77;2.40;;;9.50;99.90;;;;;;5059754;28;20048;-66
2023/12/26 10:16:26;;;;;;;19.08;1.60;;;9.50;99.90;;;;;;5060749;28;20044;-66
2023/12/26 10:18:52;;;;;;;18.98;1.83;;;9.50;99.90;;;;;;5039847;28;20506;-67
2023/12/26 10:21:18;;;;;;;14.43;1.70;;;9.50;99.90;;;;;;5039272;28;20054;-65
2023/12/26 10:23:45;;;;;;;25.98;2.92;;;9.60;99.90;;;;;;5040653;28;20101;-66
2023/12/26 10:26:11;;;;;;;15.77;1.88;;;9.70;99.90;;;;;;5038239;28;20643;-66
2023/12/26 10:28:38;;;;;;;16.92;2.25;;;9.70;99.90;;;;;;5037985;28;20044;-66
2023/12/26 10:31:18;;;;;;;13.68;1.38;;;9.70;99.90;;;;;;5040331;28;20388;-65
2023/12/26 10:33:44;;;;;;;15.98;1.95;;;9.80;99.90;;;;;;5038805;28;20052;-65
2023/12/26 10:36:10;;;;;;;20.17;2.17;;;9.80;99.90;;;;;;5041327;28;20077;-66
2023/12/26 10:38:38;;;;;;;22.70;2.50;;;9.80;99.90;;;;;;5059741;28;20347;-66
2023/12/26 10:41:27;;;;;;;16.05;1.75;;;9.80;99.90;;;;;;5039845;28;20135;-65
2023/12/26 10:43:59;;;;;;;18.77;1.60;;;9.80;99.90;;;;;;5037133;28;20032;-65
2023/12/26 10:46:26;;;;;;;12.25;1.42;;;9.70;99.90;;;;;;5021384;28;20737;-66
2023/12/26 10:48:53;;;;;;;20.38;2.50;;;9.80;99.90;;;;;;5056784;28;20047;-66
2023/12/26 10:51:22;;;;;;;18.67;2.60;;;9.80;99.90;;;;;;5058853;28;20502;-66
2023/12/26 10:54:04;;;;;;;11.13;1.58;;;9.90;99.90;;;;;;5041118;28;20127;-65
2023/12/26 10:56:32;;;;;;;16.42;2.10;;;9.90;99.90;;;;;;5040728;28;20040;-66
2023/12/26 10:59:00;;;;;;;11.88;1.50;;;10.00;99.90;;;;;;5058258;28;20047;-66
2023/12/26 13:53:59;;;;;;;4.50;0.20;;;8.30;99.90;;;;;;5052701;28;20094;-66
2023/12/26 13:57:02;;;;;;;4.97;0.25;;;8.30;99.90;;;;;;5040538;28;20487;-65
2023/12/26 14:00:06;;;;;;;9.67;0.97;;;8.40;99.90;;;;;;5048595;28;20066;-65
2023/12/26 14:03:09;;;;;;;11.75;0.70;;;8.60;99.90;;;;;;5060679;28;20173;-66
2023/12/26 14:06:13;;;;;;;12.77;0.73;;;8.60;99.90;;;;;;5021658;28;20418;-66
2023/12/26 14:09:16;;;;;;;8.55;0.47;;;8.50;99.90;;;;;;5056086;28;20044;-66
2023/12/26 14:12:20;;;;;;;9.15;0.32;;;8.60;99.90;;;;;;5053748;28;20048;-66
2023/12/26 14:15:23;;;;;;;5.80;0.47;;;8.70;99.90;;;;;;5024620;28;20162;-66
2023/12/26 14:18:27;;;;;;;5.47;0.67;;;8.70;99.90;;;;;;5059059;28;20045;-67
2023/12/26 14:21:30;;;;;;;3.80;0.40;;;8.60;99.90;;;;;;5037200;28;20290;-67
2023/12/26 14:24:33;;;;;;;7.07;0.45;;;8.50;99.90;;;;;;5023067;28;20044;-66
2023/12/26 14:27:37;;;;;;;4.72;0.30;;;8.30;99.90;;;;;;5038666;28;20055;-66
2023/12/26 14:30:40;;;;;;;9.38;0.55;;;8.40;99.90;;;;;;5021790;28;20048;-66
2023/12/26 14:33:44;;;;;;;8.82;0.50;;;8.40;99.90;;;;;;5060975;28;20040;-66
2023/12/26 14:36:48;;;;;;;9.02;0.50;;;8.30;99.90;;;;;;5039652;28;20078;-66
2023/12/26 14:39:51;;;;;;;13.35;0.60;;;8.20;99.90;;;;;;5060749;28;20546;-66
2023/12/26 14:42:55;;;;;;;12.18;0.50;;;8.30;99.90;;;;;;5043494;28;20044;-66
2023/12/26 14:45:59;;;;;;;7.70;0.50;;;8.30;99.90;;;;;;5041224;28;20036;-66
2023/12/26 14:49:02;;;;;;;8.38;0.60;;;8.20;99.90;;;;;;5059563;28;20641;-66
2023/12/26 14:52:06;;;;;;;15.98;1.77;;;8.10;99.90;;;;;;5038671;28;20032;-66
2023/12/26 14:55:09;;;;;;;4.65;0.47;;;8.00;99.90;;;;;;5053422;28;20040;-66
2023/12/26 14:58:12;;;;;;;10.30;1.20;;;8.00;99.90;;;;;;5034557;28;20453;-67
2023/12/26 15:01:16;;;;;;;8.48;0.60;;;8.00;99.90;;;;;;5057086;28;20068;-66
2023/12/26 15:03:41;;;;;;;5.13;0.20;;;7.90;99.90;;;;;;5052388;28;20411;-65
2023/12/26 15:06:15;;;;;;;8.30;0.45;;;7.50;99.90;;;;;;5057825;28;20458;-67
2023/12/26 15:08:41;;;;;;;5.93;0.40;;;7.20;99.90;;;;;;5021290;28;20032;-64
2023/12/26 15:11:17;;;;;;;4.72;0.30;;;7.00;99.90;;;;;;5052966;28;20393;-67
2023/12/26 15:13:42;;;;;;;9.30;0.45;;;6.90;99.90;;;;;;5073907;28;20390;-66
2023/12/26 15:16:19;;;;;;;10.90;0.45;;;6.80;99.90;;;;;;5042339;28;20046;-68
2023/12/26 15:18:45;;;;;;;11.55;0.50;;;6.80;99.90;;;;;;5019644;28;20094;-67
2023/12/26 15:21:12;;;;;;;10.18;0.77;;;6.60;99.90;;;;;;5041709;28;20089;-67
2023/12/26 15:23:37;;;;;;;15.68;0.90;;;6.60;99.90;;;;;;5036807;28;20048;-67
2023/12/26 15:26:13;;;;;;;10.88;0.70;;;6.70;99.90;;;;;;5033311;28;20281;-69
2023/12/26 15:28:40;;;;;;;16.73;0.73;;;6.60;99.90;;;;;;5023980;28;20142;-67
2023/12/26 15:31:18;;;;;;;11.20;0.70;;;6.60;99.90;;;;;;5037838;28;20157;-66
2023/12/26 15:33:48;;;;;;;11.68;0.90;;;6.60;99.90;;;;;;5042555;28;20040;-67
2023/12/26 15:36:17;;;;;;;15.38;1.13;;;6.60;99.90;;;;;;5055750;28;20135;-67
2023/12/26 15:38:44;;;;;;;12.48;1.35;;;6.60;99.90;;;;;;5041270;28;20343;-66
2023/12/26 15:41:10;;;;;;;11.43;0.95;;;6.60;99.90;;;;;;5041755;28;20302;-67
2023/12/26 15:43:36;;;;;;;16.48;1.30;;;6.60;99.90;;;;;;5040152;28;20040;-67
2023/12/26 15:46:01;;;;;;;17.50;0.85;;;6.50;99.90;;;;;;5057585;28;20123;-67
2023/12/26 15:48:28;;;;;;;17.52;1.20;;;6.50;99.90;;;;;;5039305;28;20133;-67